Wolcott, New York
Current Conditions -  °F | °C
As of 12:54 AM on Saturday 29 Nov 2014 (Local Time) from KFZY Reporting Station
Overcast Overcast  
Wind Chill: 16°   Ceiling: 3800
Heat Index: 25°   Visibility: 10mi
Dew Point: 16°   Wind: 8mph
Humidity: 69%   Direction: 210°SSW
Pressure: 30.21"   Gusts: NA
Location:  43.22°N, 76.81°W
Report Text: KFZY 290554Z AUTO 21007KT 10SM OVC038 M04/M09 A3021 RMK AO2 SLP236 T10391089 11039 21044 55000
Loading
Personal Weather Stations






























Interactive Weather Map New forecast layout! Learn more

10-Day Weather Forecast

Advertisements
Track Severe Weather on mobile